Time;durP1;ratioP1;P1;durP2;ratioP2;P2;SDS_P1;SDS_P2;PMS_P1;PMS_P2;Temp;Humidity;BMP_temperature;BMP_pressure;BME280_temperature;BME280_humidity;BME280_pressure;Samples;Min_cycle;Max_cycle;Signal;HPM_P1;HPM_P2
2023/08/19 00:01:00;;;;;;;1.70;1.25;;;18.80;99.90;;;;;;5052672;28;20141;-88
2023/08/19 00:03:26;;;;;;;3.58;1.60;;;18.70;99.90;;;;;;5051671;28;20427;-89
2023/08/19 00:05:52;;;;;;;4.90;3.00;;;18.70;99.90;;;;;;5035531;28;20446;-88
2023/08/19 00:08:19;;;;;;;3.38;2.28;;;18.70;99.90;;;;;;5051476;28;20052;-88
2023/08/19 00:10:45;;;;;;;4.85;2.97;;;18.60;99.90;;;;;;5052532;28;20048;-89
2023/08/19 00:13:10;;;;;;;1.13;1.05;;;18.60;99.90;;;;;;5052693;28;20106;-88
2023/08/19 00:15:36;;;;;;;3.47;1.73;;;18.60;99.90;;;;;;5051064;28;20045;-88
2023/08/19 00:18:02;;;;;;;3.80;2.65;;;18.60;99.90;;;;;;5053192;28;20403;-88
2023/08/19 00:20:28;;;;;;;2.15;1.98;;;18.60;99.90;;;;;;5053745;28;20083;-88
2023/08/19 00:22:56;;;;;;;1.45;1.35;;;18.60;99.90;;;;;;5055236;28;20052;-88
2023/08/19 00:25:25;;;;;;;3.10;1.40;;;18.60;99.90;;;;;;5053860;28;20566;-88
2023/08/19 00:27:51;;;;;;;1.65;1.48;;;18.60;99.90;;;;;;5036911;28;20045;-88
2023/08/19 00:30:17;;;;;;;4.55;1.98;;;18.60;99.90;;;;;;5054925;28;20045;-88
2023/08/19 00:32:44;;;;;;;1.75;1.52;;;18.60;99.90;;;;;;5054844;28;20053;-88
2023/08/19 00:35:09;;;;;;;4.43;2.65;;;18.60;99.90;;;;;;5054650;28;20492;-88
2023/08/19 00:37:36;;;;;;;3.78;2.70;;;18.60;99.90;;;;;;5056279;28;20049;-88
2023/08/19 00:40:05;;;;;;;3.50;2.67;;;18.60;99.90;;;;;;5054740;28;20037;-88
2023/08/19 00:42:31;;;;;;;1.55;1.27;;;18.50;99.90;;;;;;5052819;28;20087;-88
2023/08/19 00:44:56;;;;;;;2.92;2.42;;;18.70;99.90;;;;;;5052007;28;20100;-88
2023/08/19 00:47:24;;;;;;;2.67;2.47;;;18.50;99.90;;;;;;5053814;28;20048;-89
2023/08/19 00:49:50;;;;;;;1.85;1.50;;;18.40;99.90;;;;;;5054234;28;20048;-89
2023/08/19 00:52:17;;;;;;;1.58;1.48;;;18.60;99.90;;;;;;5054174;28;20037;-89
2023/08/19 00:54:43;;;;;;;1.15;0.93;;;18.70;99.90;;;;;;5053952;28;20480;-88
2023/08/19 00:57:09;;;;;;;6.03;1.17;;;18.60;99.90;;;;;;5053330;28;20472;-88
2023/08/19 00:59:35;;;;;;;1.73;1.25;;;18.30;99.90;;;;;;5052635;28;20113;-88
2023/08/19 01:02:01;;;;;;;0.98;0.70;;;18.30;99.90;;;;;;5053619;28;20091;-88
2023/08/19 01:04:26;;;;;;;0.93;0.90;;;18.40;99.90;;;;;;5051957;28;20076;-88
2023/08/19 01:07:11;;;;;;;2.25;1.42;;;18.40;99.90;;;;;;5053177;28;20053;-87
2023/08/19 01:09:55;;;;;;;2.63;1.02;;;18.30;99.90;;;;;;5052755;28;20045;-87
2023/08/19 01:12:55;;;;;;;3.40;1.60;;;18.20;99.90;;;;;;5052453;28;20049;-87
2023/08/19 01:15:26;;;;;;;4.03;1.92;;;18.20;99.90;;;;;;5051494;28;20049;-88
2023/08/19 01:17:53;;;;;;;1.52;1.33;;;18.20;99.90;;;;;;5053385;28;20052;-88
2023/08/19 01:20:21;;;;;;;3.97;2.38;;;18.20;99.90;;;;;;5051420;28;20041;-88
2023/08/19 01:22:55;;;;;;;3.70;1.88;;;18.40;99.90;;;;;;5052033;28;20211;-87
2023/08/19 01:25:22;;;;;;;1.80;0.65;;;18.20;99.90;;;;;;5050864;28;20102;-89
2023/08/19 01:27:47;;;;;;;2.60;1.65;;;18.30;99.90;;;;;;5034215;28;20083;-88
2023/08/19 01:30:14;;;;;;;1.15;1.05;;;18.30;99.90;;;;;;5049483;28;20049;-88
2023/08/19 01:32:42;;;;;;;0.85;0.75;;;18.40;99.90;;;;;;5051459;28;20072;-88
2023/08/19 01:35:09;;;;;;;1.10;1.00;;;18.30;99.90;;;;;;5049749;28;20098;-88
2023/08/19 01:37:50;;;;;;;0.95;0.90;;;18.50;99.90;;;;;;5050261;28;20186;-88
2023/08/19 01:40:16;;;;;;;2.53;1.33;;;18.70;99.90;;;;;;5051907;28;20132;-88
2023/08/19 01:42:44;;;;;;;4.68;1.65;;;18.50;99.90;;;;;;5051786;28;20063;-88
2023/08/19 01:45:11;;;;;;;1.50;1.40;;;18.40;99.90;;;;;;5051352;28;20449;-87
2023/08/19 01:47:38;;;;;;;0.93;0.88;;;18.50;99.90;;;;;;5051435;28;20059;-89
2023/08/19 01:50:05;;;;;;;5.15;2.22;;;18.20;99.90;;;;;;5049504;28;20507;-88
2023/08/19 01:52:31;;;;;;;1.30;1.20;;;18.30;99.90;;;;;;5049618;28;20099;-88
2023/08/19 01:54:57;;;;;;;0.73;0.63;;;18.20;99.90;;;;;;5049876;28;20053;-87
2023/08/19 01:57:26;;;;;;;0.82;0.80;;;18.30;99.90;;;;;;5051563;28;20071;-87
2023/08/19 01:59:52;;;;;;;2.47;2.28;;;18.20;99.90;;;;;;5050986;28;20057;-88
2023/08/19 02:02:18;;;;;;;2.75;1.98;;;18.80;99.90;;;;;;5050632;28;20037;-88
2023/08/19 02:04:44;;;;;;;2.78;2.28;;;18.20;99.90;;;;;;5051087;28;20099;-88
2023/08/19 02:07:09;;;;;;;1.65;1.55;;;18.10;99.90;;;;;;5051147;28;20049;-88
2023/08/19 02:09:35;;;;;;;2.03;1.35;;;18.10;99.90;;;;;;5049032;28;20483;-88
2023/08/19 02:12:01;;;;;;;1.73;1.60;;;18.10;99.90;;;;;;5049275;28;20041;-87
2023/08/19 02:14:26;;;;;;;2.42;1.73;;;18.20;99.90;;;;;;5049379;28;20045;-87
2023/08/19 02:16:52;;;;;;;0.70;0.70;;;18.10;99.90;;;;;;5050411;28;20045;-87
2023/08/19 02:19:17;;;;;;;2.72;1.00;;;18.20;99.90;;;;;;5030415;28;20099;-88
2023/08/19 02:21:43;;;;;;;3.60;1.88;;;18.10;99.90;;;;;;5029896;28;20056;-88
2023/08/19 02:24:09;;;;;;;0.88;0.80;;;18.10;99.90;;;;;;5032087;28;20454;-87
2023/08/19 02:26:34;;;;;;;0.80;0.80;;;18.10;99.90;;;;;;5030888;28;20045;-88
2023/08/19 02:29:00;;;;;;;2.47;1.30;;;18.00;99.90;;;;;;5030687;28;20056;-88
2023/08/19 02:31:26;;;;;;;2.08;1.33;;;18.70;99.90;;;;;;5030404;28;20041;-88
2023/08/19 02:33:52;;;;;;;1.75;1.45;;;18.10;99.90;;;;;;5012480;28;20053;-87
2023/08/19 02:36:19;;;;;;;2.00;1.80;;;18.00;99.90;;;;;;5031416;28;20064;-88
2023/08/19 02:38:44;;;;;;;3.63;2.00;;;18.00;99.90;;;;;;5044451;28;20142;-87
2023/08/19 02:41:10;;;;;;;5.35;2.78;;;17.90;99.90;;;;;;5051834;28;20048;-87
2023/08/19 02:43:36;;;;;;;1.23;1.13;;;17.80;99.90;;;;;;5051333;28;20064;-88
2023/08/19 02:46:02;;;;;;;2.28;1.73;;;17.80;99.90;;;;;;5049754;28;20066;-87
2023/08/19 02:48:28;;;;;;;2.85;1.48;;;17.90;99.90;;;;;;5049373;28;20044;-88
2023/08/19 02:50:54;;;;;;;3.63;2.70;;;17.80;99.90;;;;;;5050945;28;20617;-88
2023/08/19 02:53:20;;;;;;;1.52;1.42;;;18.10;99.90;;;;;;5050629;28;20450;-87
2023/08/19 02:55:46;;;;;;;1.98;1.67;;;18.20;99.90;;;;;;5049385;28;20041;-88
2023/08/19 02:58:13;;;;;;;2.63;2.05;;;18.40;99.90;;;;;;5049179;28;20055;-88
2023/08/19 03:00:39;;;;;;;7.88;3.15;;;18.40;99.90;;;;;;5049160;28;20128;-87
2023/08/19 03:03:06;;;;;;;3.70;1.73;;;18.50;99.90;;;;;;5049248;28;20798;-87
2023/08/19 03:05:37;;;;;;;2.28;0.88;;;18.40;99.90;;;;;;5049950;28;20056;-87
2023/08/19 03:08:03;;;;;;;5.20;2.63;;;18.20;99.90;;;;;;5047583;28;20110;-88
2023/08/19 03:10:32;;;;;;;2.33;1.75;;;18.10;99.90;;;;;;5050409;28;20055;-88
2023/08/19 03:12:59;;;;;;;2.10;1.80;;;18.10;99.90;;;;;;5050533;28;20041;-87
2023/08/19 03:15:25;;;;;;;6.13;2.97;;;18.20;99.90;;;;;;5050547;28;20088;-87
2023/08/19 03:17:50;;;;;;;2.90;2.05;;;18.20;99.90;;;;;;5048909;28;20064;-88
2023/08/19 03:20:16;;;;;;;3.33;1.83;;;18.70;99.90;;;;;;5049240;28;20045;-87
2023/08/19 03:22:45;;;;;;;2.53;1.45;;;18.30;99.90;;;;;;5049905;28;20073;-87
2023/08/19 03:25:11;;;;;;;8.70;3.72;;;18.20;99.90;;;;;;5050338;28;20045;-87
2023/08/19 03:27:37;;;;;;;1.92;1.10;;;18.20;99.90;;;;;;5049799;28;20138;-87
2023/08/19 03:30:04;;;;;;;3.88;2.72;;;18.10;99.90;;;;;;5031629;28;20076;-88
2023/08/19 03:32:30;;;;;;;1.95;1.73;;;18.10;99.90;;;;;;5047627;28;20504;-88
2023/08/19 03:34:56;;;;;;;1.90;1.33;;;18.00;99.90;;;;;;5031156;28;20056;-89
2023/08/19 03:37:22;;;;;;;2.90;1.83;;;17.90;99.90;;;;;;5050039;28;20502;-88
2023/08/19 03:39:48;;;;;;;0.90;0.77;;;17.90;99.90;;;;;;5050792;28;20059;-88
2023/08/19 03:42:13;;;;;;;1.25;1.15;;;17.90;99.90;;;;;;5049758;28;20361;-88
2023/08/19 03:44:39;;;;;;;3.25;2.22;;;17.90;99.90;;;;;;5050754;28;20080;-88
2023/08/19 03:47:05;;;;;;;1.95;1.70;;;18.00;99.90;;;;;;5034972;28;20060;-88
2023/08/19 03:49:30;;;;;;;0.98;0.85;;;18.20;99.90;;;;;;5053028;28;20068;-88
2023/08/19 03:51:56;;;;;;;2.80;2.40;;;18.20;99.90;;;;;;5051618;28;20053;-88
2023/08/19 03:54:22;;;;;;;4.75;2.53;;;18.20;99.90;;;;;;5034347;28;20048;-88
2023/08/19 03:56:47;;;;;;;4.88;2.22;;;18.80;99.90;;;;;;5034504;28;20094;-88
2023/08/19 03:59:13;;;;;;;1.75;1.35;;;18.30;99.90;;;;;;5035114;28;20057;-88
2023/08/19 04:01:39;;;;;;;4.32;2.85;;;18.50;99.90;;;;;;5053370;28;20045;-88
2023/08/19 04:04:07;;;;;;;3.92;1.98;;;18.50;99.90;;;;;;5051818;28;20053;-88
2023/08/19 04:06:33;;;;;;;3.47;2.58;;;18.50;99.90;;;;;;5053729;28;20063;-88
2023/08/19 04:08:59;;;;;;;2.03;1.88;;;18.60;99.90;;;;;;5052254;28;20399;-88
2023/08/19 04:11:24;;;;;;;3.08;2.30;;;18.50;99.90;;;;;;5035712;28;20053;-87
2023/08/19 04:13:50;;;;;;;1.33;1.15;;;18.50;99.90;;;;;;5030336;28;20081;-88
2023/08/19 04:16:16;;;;;;;2.55;1.95;;;18.50;99.90;;;;;;5036096;28;20924;-88
2023/08/19 04:18:42;;;;;;;2.42;1.80;;;18.60;99.90;;;;;;5052376;28;20037;-86
2023/08/19 04:21:09;;;;;;;3.45;1.55;;;18.70;99.90;;;;;;5051597;28;20124;-88
2023/08/19 04:23:35;;;;;;;1.73;1.63;;;18.80;99.90;;;;;;5052137;28;20053;-88
2023/08/19 04:26:01;;;;;;;2.80;2.13;;;18.70;99.90;;;;;;5050643;28;20120;-87
2023/08/19 04:28:27;;;;;;;2.40;1.42;;;18.70;99.90;;;;;;5053365;28;20582;-88
2023/08/19 04:31:00;;;;;;;2.53;1.80;;;18.70;99.90;;;;;;5052291;28;20045;-88
2023/08/19 04:33:26;;;;;;;5.10;1.73;;;18.70;99.90;;;;;;5052547;28;20049;-88
2023/08/19 04:35:52;;;;;;;1.65;1.52;;;18.70;99.90;;;;;;5051619;28;20049;-87
2023/08/19 04:38:17;;;;;;;2.25;1.42;;;18.80;99.90;;;;;;5053776;28;20057;-88
2023/08/19 04:40:43;;;;;;;3.03;1.60;;;18.80;99.90;;;;;;5052891;28;20067;-88
2023/08/19 04:43:09;;;;;;;1.63;1.52;;;18.80;99.90;;;;;;5051143;28;20044;-87
2023/08/19 04:45:34;;;;;;;13.70;2.70;;;18.90;99.90;;;;;;5050568;28;20083;-88
2023/08/19 04:48:00;;;;;;;1.17;1.08;;;19.00;99.90;;;;;;5033678;28;20045;-87
2023/08/19 04:50:26;;;;;;;1.63;1.52;;;19.00;99.90;;;;;;5052667;28;20265;-88
2023/08/19 04:52:51;;;;;;;4.40;1.88;;;19.80;99.90;;;;;;5049677;28;20040;-87
2023/08/19 04:55:17;;;;;;;1.80;1.48;;;19.00;99.90;;;;;;5049367;28;20044;-88
2023/08/19 04:57:43;;;;;;;3.17;2.50;;;19.10;99.90;;;;;;5051823;28;20411;-88
2023/08/19 05:00:12;;;;;;;1.15;0.85;;;19.10;99.90;;;;;;5051650;28;20059;-88
2023/08/19 05:02:38;;;;;;;3.03;2.72;;;19.20;99.90;;;;;;5051189;28;20064;-88
2023/08/19 05:05:05;;;;;;;4.35;3.15;;;19.20;99.90;;;;;;5050717;28;20052;-88
2023/08/19 05:07:30;;;;;;;4.95;1.75;;;19.20;99.90;;;;;;5051101;28;20049;-88
2023/08/19 05:09:56;;;;;;;3.67;1.92;;;19.30;99.90;;;;;;5050876;28;20441;-87
2023/08/19 05:12:23;;;;;;;3.00;2.00;;;19.30;99.90;;;;;;5050496;28;20053;-89
2023/08/19 05:14:49;;;;;;;2.25;1.80;;;19.40;99.90;;;;;;5050645;28;20043;-88
2023/08/19 05:17:14;;;;;;;5.70;2.20;;;19.50;99.90;;;;;;5051676;28;20124;-87
2023/08/19 05:19:40;;;;;;;1.58;1.35;;;19.60;99.90;;;;;;5049781;28;20206;-87
2023/08/19 05:22:06;;;;;;;3.55;2.22;;;19.60;99.90;;;;;;5051535;28;20049;-88
2023/08/19 05:24:32;;;;;;;4.50;1.67;;;20.20;99.90;;;;;;5050074;28;20045;-87
2023/08/19 05:26:59;;;;;;;4.32;3.25;;;19.70;99.90;;;;;;5051865;28;20127;-87
2023/08/19 05:29:25;;;;;;;1.52;1.33;;;19.80;99.90;;;;;;5052395;28;20037;-88
2023/08/19 05:31:50;;;;;;;6.50;3.00;;;19.80;99.90;;;;;;5050357;28;20055;-88
2023/08/19 05:34:16;;;;;;;3.05;1.65;;;19.80;99.90;;;;;;5051255;28;20049;-88
2023/08/19 05:36:42;;;;;;;2.58;1.67;;;19.90;99.90;;;;;;5049136;28;20086;-88
2023/08/19 05:39:07;;;;;;;5.20;2.15;;;19.90;99.90;;;;;;5049552;28;20057;-88
2023/08/19 05:41:33;;;;;;;4.53;2.97;;;19.90;99.90;;;;;;5051009;28;20095;-88
2023/08/19 05:43:59;;;;;;;4.65;1.98;;;19.90;99.90;;;;;;5051421;28;20044;-88
2023/08/19 05:46:25;;;;;;;2.95;1.60;;;20.00;99.90;;;;;;5049878;28;20495;-88
2023/08/19 05:48:51;;;;;;;3.75;2.20;;;20.00;99.90;;;;;;5049939;28;20582;-88
2023/08/19 05:51:17;;;;;;;2.55;1.73;;;20.00;99.90;;;;;;5051095;28;20132;-87
2023/08/19 05:53:43;;;;;;;1.45;1.35;;;20.00;99.90;;;;;;5051061;28;20085;-87
2023/08/19 05:56:09;;;;;;;4.07;1.67;;;20.00;99.90;;;;;;5050716;28;20087;-88
2023/08/19 05:58:35;;;;;;;3.70;1.80;;;20.70;99.90;;;;;;5049870;28;20064;-88
2023/08/19 06:01:03;;;;;;;1.70;1.50;;;20.30;99.90;;;;;;5049904;28;20118;-87
2023/08/19 06:03:29;;;;;;;3.17;2.05;;;20.30;99.90;;;;;;5032623;28;20059;-87
2023/08/19 06:05:54;;;;;;;0.55;0.55;;;20.30;99.90;;;;;;5049153;28;20410;-88
2023/08/19 06:08:20;;;;;;;1.98;1.77;;;20.50;99.90;;;;;;5050768;28;20060;-87
2023/08/19 06:10:46;;;;;;;1.55;0.88;;;20.60;99.90;;;;;;5051330;28;20048;-88
2023/08/19 06:13:12;;;;;;;1.15;1.05;;;20.70;99.90;;;;;;5051160;28;20045;-88
2023/08/19 06:15:38;;;;;;;3.25;1.13;;;20.80;1.00;;;;;;5048854;28;20044;-87
2023/08/19 06:18:04;;;;;;;4.55;2.38;;;20.90;1.00;;;;;;5050624;28;20060;-87
2023/08/19 06:20:30;;;;;;;1.52;1.27;;;21.00;99.90;;;;;;5049769;28;20059;-87
2023/08/19 06:22:55;;;;;;;0.73;0.50;;;21.10;99.90;;;;;;5048887;28;20435;-87
2023/08/19 06:25:21;;;;;;;1.98;1.77;;;21.20;99.90;;;;;;5031142;28;20107;-88
2023/08/19 06:27:47;;;;;;;1.02;0.80;;;21.30;1.00;;;;;;5047643;28;20091;-87
2023/08/19 06:30:13;;;;;;;1.45;1.20;;;21.40;91.40;;;;;;5048872;28;20488;-88
2023/08/19 06:32:39;;;;;;;1.33;0.75;;;21.50;1.00;;;;;;5048941;28;20059;-87
2023/08/19 06:35:05;;;;;;;0.80;0.68;;;21.70;1.00;;;;;;5046983;28;20033;-88
2023/08/19 06:37:36;;;;;;;1.15;1.05;;;22.00;99.90;;;;;;5048162;28;20086;-88
2023/08/19 06:40:06;;;;;;;2.40;2.00;;;22.40;99.90;;;;;;5048941;28;20115;-88
2023/08/19 06:42:35;;;;;;;1.02;0.77;;;22.40;3.40;;;;;;5049029;28;20055;-87
2023/08/19 06:45:02;;;;;;;2.05;1.60;;;22.40;99.90;;;;;;5049559;28;20048;-88
2023/08/19 06:47:33;;;;;;;0.93;0.88;;;22.30;99.90;;;;;;5046702;28;20809;-88
2023/08/19 06:49:59;;;;;;;1.30;1.08;;;22.20;99.90;;;;;;5046725;28;20432;-88
2023/08/19 06:52:25;;;;;;;0.93;0.47;;;22.20;99.90;;;;;;5046842;28;20116;-88
2023/08/19 06:54:51;;;;;;;0.43;0.43;;;22.10;99.90;;;;;;5048855;28;20092;-89
2023/08/19 06:57:29;;;;;;;1.23;1.13;;;21.90;19.30;;;;;;5047340;28;20500;-88
2023/08/19 07:00:11;;;;;;;2.83;1.88;;;21.80;99.90;;;;;;5048759;28;20053;-88
2023/08/19 07:02:37;;;;;;;2.00;1.30;;;21.70;99.90;;;;;;5031772;28;20060;-88
2023/08/19 07:05:17;;;;;;;4.32;0.90;;;21.70;99.90;;;;;;5048787;28;20051;-88
2023/08/19 07:07:49;;;;;;;0.98;0.55;;;21.80;99.90;;;;;;5046740;28;20049;-88
2023/08/19 07:10:20;;;;;;;1.70;1.17;;;21.80;99.90;;;;;;5047090;28;20059;-88
2023/08/19 07:12:47;;;;;;;2.75;1.98;;;21.80;99.90;;;;;;5048633;28;20057;-88
2023/08/19 07:15:14;;;;;;;4.53;1.33;;;21.80;99.90;;;;;;5045993;28;20044;-88
2023/08/19 07:17:44;;;;;;;2.55;1.60;;;21.80;99.90;;;;;;5047645;28;20045;-88
2023/08/19 07:20:16;;;;;;;1.15;0.70;;;21.90;99.90;;;;;;5049542;28;20509;-88
2023/08/19 07:22:46;;;;;;;1.42;0.63;;;22.00;1.00;;;;;;5052420;28;20048;-88
2023/08/19 07:25:12;;;;;;;1.70;1.30;;;22.10;1.00;;;;;;5052685;28;20488;-88
2023/08/19 07:27:38;;;;;;;2.33;1.23;;;22.20;99.90;;;;;;5050440;28;20044;-87
2023/08/19 07:30:04;;;;;;;1.38;1.25;;;22.30;99.90;;;;;;5067551;28;20041;-87
2023/08/19 07:32:34;;;;;;;0.98;0.93;;;22.30;99.90;;;;;;5053894;28;20044;-87
2023/08/19 07:35:00;;;;;;;0.95;0.52;;;22.50;99.90;;;;;;5050655;28;20052;-87
2023/08/19 07:37:26;;;;;;;1.38;1.27;;;22.60;99.90;;;;;;5047940;28;20274;-84
2023/08/19 07:39:55;;;;;;;0.50;0.50;;;22.70;99.90;;;;;;5048620;28;20120;-86
2023/08/19 07:42:20;;;;;;;0.95;0.88;;;22.80;1.00;;;;;;5047418;28;20045;-85
2023/08/19 07:44:46;;;;;;;0.45;0.45;;;22.80;69.50;;;;;;5049418;28;20049;-86
2023/08/19 07:47:12;;;;;;;3.10;1.45;;;22.90;99.90;;;;;;5047841;28;20056;-86
2023/08/19 07:49:40;;;;;;;0.93;0.88;;;23.00;41.70;;;;;;5049378;28;20372;-86
2023/08/19 07:52:06;;;;;;;1.98;1.23;;;23.10;1.00;;;;;;5046857;28;20045;-86
2023/08/19 07:54:32;;;;;;;1.45;1.13;;;23.10;27.60;;;;;;5048567;28;20045;-85
2023/08/19 07:56:59;;;;;;;1.02;0.95;;;23.30;99.90;;;;;;5048142;28;20043;-86
2023/08/19 07:59:27;;;;;;;1.60;1.42;;;23.50;99.90;;;;;;5046937;28;20503;-86
2023/08/19 08:01:54;;;;;;;1.80;1.30;;;23.50;99.90;;;;;;5047643;28;20748;-85
2023/08/19 08:04:21;;;;;;;1.27;0.90;;;23.50;99.90;;;;;;5030319;28;20092;-88
2023/08/19 08:06:48;;;;;;;1.70;0.88;;;23.50;99.90;;;;;;5048287;28;20430;-86
2023/08/19 08:09:14;;;;;;;0.98;0.80;;;23.40;1.00;;;;;;5029982;28;20088;-86
2023/08/19 08:11:43;;;;;;;1.02;0.75;;;23.60;99.90;;;;;;5048278;28;20091;-85
2023/08/19 08:14:09;;;;;;;1.08;0.98;;;23.60;99.90;;;;;;5048800;28;20045;-86
2023/08/19 08:16:35;;;;;;;1.83;1.25;;;23.70;99.90;;;;;;5050393;28;20048;-86
2023/08/19 08:19:01;;;;;;;0.75;0.63;;;23.70;74.60;;;;;;5050444;28;20084;-86
2023/08/19 08:21:26;;;;;;;0.55;0.52;;;23.90;99.90;;;;;;5052825;28;20044;-86
2023/08/19 08:23:54;;;;;;;0.68;0.55;;;24.10;1.00;;;;;;5069754;28;20032;-86
2023/08/19 08:26:20;;;;;;;0.20;0.20;;;24.50;99.90;;;;;;5063380;28;20052;-86
2023/08/19 08:28:46;;;;;;;5.82;1.60;;;24.50;31.70;;;;;;5053220;28;20041;-86
2023/08/19 08:31:12;;;;;;;0.28;0.28;;;24.60;53.20;;;;;;5051963;28;20052;-86
2023/08/19 08:33:38;;;;;;;4.90;1.67;;;24.80;20.60;;;;;;5046827;28;20045;-86
2023/08/19 08:36:04;;;;;;;2.65;1.52;;;24.70;1.00;;;;;;5044152;28;20490;-86
2023/08/19 08:38:30;;;;;;;0.63;0.52;;;24.80;99.90;;;;;;5044495;28;20040;-86
2023/08/19 08:40:59;;;;;;;3.60;1.63;;;24.50;1.00;;;;;;5044767;28;20041;-86
2023/08/19 08:43:25;;;;;;;0.63;0.63;;;24.50;1.00;;;;;;5044424;28;20048;-86
2023/08/19 08:45:51;;;;;;;0.30;0.30;;;24.60;1.00;;;;;;5043961;28;20049;-87
2023/08/19 08:48:18;;;;;;;0.63;0.38;;;24.80;99.90;;;;;;5042882;28;20058;-86
2023/08/19 08:50:44;;;;;;;2.05;1.13;;;24.80;99.90;;;;;;5043898;28;20045;-86
2023/08/19 08:53:13;;;;;;;0.50;0.47;;;25.10;99.90;;;;;;5044428;28;20410;-87
2023/08/19 08:55:38;;;;;;;0.17;0.17;;;25.20;99.90;;;;;;5044812;28;20037;-86
2023/08/19 08:58:04;;;;;;;1.60;0.85;;;25.50;99.90;;;;;;5042157;28;20403;-85
2023/08/19 09:00:31;;;;;;;0.35;0.35;;;25.90;97.50;;;;;;5043127;28;20051;-85
2023/08/19 09:02:57;;;;;;;0.22;0.22;;;26.10;1.00;;;;;;5044025;28;20049;-85
2023/08/19 09:05:25;;;;;;;0.77;0.70;;;26.30;1.00;;;;;;5042015;28;20041;-85
2023/08/19 09:07:54;;;;;;;0.38;0.38;;;26.40;1.00;;;;;;5043520;28;20059;-85
2023/08/19 09:10:23;;;;;;;1.67;0.88;;;26.80;1.00;;;;;;5043393;28;20041;-85
2023/08/19 09:12:58;;;;;;;0.10;0.10;;;27.30;1.00;;;;;;5043066;28;20049;-89
2023/08/19 09:15:26;;;;;;;2.85;1.20;;;28.40;1.00;;;;;;5042965;28;20106;-89
2023/08/19 09:17:53;;;;;;;1.38;0.45;;;28.20;1.00;;;;;;5044792;28;20083;-89
2023/08/19 09:20:19;;;;;;;0.17;0.17;;;27.70;99.90;;;;;;5043449;28;20049;-89
2023/08/19 09:22:45;;;;;;;0.22;0.22;;;27.90;99.90;;;;;;5043186;28;20047;-89
2023/08/19 09:25:14;;;;;;;0.45;0.45;;;28.40;99.90;;;;;;5048569;28;20044;-89
2023/08/19 09:27:52;;;;;;;2.90;1.45;;;29.00;99.90;;;;;;5050263;28;20464;-89
2023/08/19 09:30:34;;;;;;;1.02;0.85;;;29.10;99.90;;;;;;5049713;28;20105;-89
2023/08/19 09:33:00;;;;;;;0.65;0.60;;;29.00;99.90;;;;;;5050206;28;20063;-89
2023/08/19 09:35:39;;;;;;;0.20;0.20;;;28.90;99.90;;;;;;5050986;28;20056;-89
2023/08/19 09:38:04;;;;;;;0.43;0.25;;;28.90;99.90;;;;;;5050903;28;20032;-89
2023/08/19 09:40:30;;;;;;;0.38;0.25;;;28.40;99.90;;;;;;5051736;28;20128;-89
2023/08/19 09:42:58;;;;;;;1.33;0.90;;;28.60;99.90;;;;;;5033870;28;20059;-90
2023/08/19 09:45:28;;;;;;;0.80;0.65;;;28.50;99.90;;;;;;5049733;28;20090;-88
2023/08/19 09:47:54;;;;;;;0.20;0.20;;;28.80;99.90;;;;;;5050397;28;20750;-89
2023/08/19 09:50:23;;;;;;;3.72;1.05;;;29.00;99.90;;;;;;5050163;28;20056;-91
2023/08/19 09:52:53;;;;;;;0.25;0.20;;;29.10;99.90;;;;;;5048537;28;20040;-89
2023/08/19 09:55:29;;;;;;;0.30;0.25;;;29.20;99.90;;;;;;5050021;28;20060;-89
2023/08/19 09:57:56;;;;;;;2.03;0.93;;;29.30;99.90;;;;;;5032286;28;20084;-89
2023/08/19 10:00:22;;;;;;;0.30;0.30;;;29.20;99.90;;;;;;5050434;28;20056;-89
2023/08/19 10:02:49;;;;;;;0.77;0.77;;;29.20;99.90;;;;;;5049357;28;20514;-89
2023/08/19 10:05:16;;;;;;;1.45;0.60;;;29.30;99.90;;;;;;5050032;28;20510;-86
2023/08/19 10:08:01;;;;;;;0.40;0.40;;;29.50;99.90;;;;;;5049257;28;20402;-89
2023/08/19 10:10:30;;;;;;;13.57;1.48;;;29.60;99.90;;;;;;5052101;28;20088;-89
2023/08/19 10:12:57;;;;;;;2.10;0.95;;;29.50;99.90;;;;;;5053781;28;20483;-88
2023/08/19 10:15:26;;;;;;;1.33;0.73;;;29.40;99.90;;;;;;5050240;28;20041;-88
2023/08/19 10:17:57;;;;;;;0.75;0.55;;;29.10;99.90;;;;;;5051531;28;20522;-88
2023/08/19 10:20:26;;;;;;;0.17;0.17;;;28.90;99.90;;;;;;5043360;22;20534;-74
2023/08/19 10:22:56;;;;;;;0.77;0.75;;;28.60;99.90;;;;;;4999647;28;20046;-74
2023/08/19 10:25:23;;;;;;;6.90;1.00;;;28.10;99.90;;;;;;5015758;28;20037;-74
2023/08/19 10:27:49;;;;;;;0.40;0.40;;;27.10;99.90;;;;;;5018489;28;20068;-75
2023/08/19 10:30:31;;;;;;;1.05;0.82;;;26.00;38.20;;;;;;5004892;28;20041;-76
2023/08/19 10:33:03;;;;;;;1.27;0.77;;;25.00;1.00;;;;;;5010398;28;20095;-77
2023/08/19 10:35:49;;;;;;;2.88;0.70;;;24.30;1.00;;;;;;5002093;28;20034;-77
2023/08/19 10:38:16;;;;;;;1.13;0.70;;;23.90;99.90;;;;;;5014826;28;20041;-77
2023/08/19 10:40:41;;;;;;;0.52;0.52;;;23.70;1.00;;;;;;5012289;28;20144;-77
2023/08/19 10:43:07;;;;;;;3.42;2.35;;;23.60;1.00;;;;;;5010436;28;20659;-77
2023/08/19 10:45:33;;;;;;;4.90;0.63;;;23.60;1.00;;;;;;4988979;28;20057;-77
2023/08/19 10:47:59;;;;;;;2.38;1.08;;;23.70;99.90;;;;;;4991475;28;20069;-77
2023/08/19 10:50:25;;;;;;;0.93;0.63;;;23.70;1.00;;;;;;4992743;28;20145;-76
2023/08/19 10:53:03;;;;;;;7.18;1.35;;;23.70;1.00;;;;;;4999750;28;20053;-76
2023/08/19 10:55:55;;;;;;;4.90;0.77;;;23.80;62.00;;;;;;4987515;28;20130;-76
2023/08/19 10:58:22;;;;;;;0.82;0.50;;;23.90;1.00;;;;;;4999725;28;20134;-76
2023/08/19 11:00:49;;;;;;;2.50;1.35;;;24.00;99.90;;;;;;4999506;28;20096;-76
2023/08/19 11:03:17;;;;;;;1.73;1.00;;;23.90;99.90;;;;;;4999781;28;20057;-76
2023/08/19 11:05:52;;;;;;;6.75;1.30;;;23.90;99.90;;;;;;4999008;28;20451;-76
2023/08/19 11:08:19;;;;;;;8.93;1.55;;;23.80;99.90;;;;;;4999719;28;20073;-76
2023/08/19 11:10:46;;;;;;;1.25;1.08;;;23.90;1.00;;;;;;4998198;28;20081;-75
2023/08/19 11:13:15;;;;;;;0.65;0.65;;;23.90;99.90;;;;;;4999416;28;20070;-75
2023/08/19 11:15:41;;;;;;;1.27;0.93;;;23.90;99.90;;;;;;4997655;28;20131;-75
2023/08/19 11:18:07;;;;;;;0.32;0.22;;;24.00;1.00;;;;;;5000002;28;20076;-75
2023/08/19 11:20:33;;;;;;;4.20;1.08;;;24.00;99.90;;;;;;4997329;28;20520;-75
2023/08/19 11:22:59;;;;;;;0.43;0.43;;;24.20;1.00;;;;;;5000130;28;20061;-76
2023/08/19 11:25:35;;;;;;;2.67;1.08;;;24.40;1.00;;;;;;4997269;28;20041;-75
2023/08/19 11:28:02;;;;;;;1.63;0.50;;;24.60;1.00;;;;;;5000098;28;20056;-75
2023/08/19 11:30:29;;;;;;;0.98;0.77;;;25.00;12.50;;;;;;4996363;28;20049;-75
2023/08/19 11:32:54;;;;;;;1.35;0.93;;;25.70;28.10;;;;;;4997608;28;20121;-75
2023/08/19 11:35:20;;;;;;;1.27;1.17;;;26.50;99.90;;;;;;4998142;28;20196;-75
2023/08/19 11:37:46;;;;;;;0.52;0.40;;;26.80;99.90;;;;;;5002515;28;20100;-75
2023/08/19 11:40:13;;;;;;;1.65;1.17;;;27.00;1.00;;;;;;4996732;28;20081;-75
2023/08/19 11:42:39;;;;;;;1.52;1.15;;;26.90;99.90;;;;;;5001684;28;20152;-75
2023/08/19 11:45:10;;;;;;;3.30;1.17;;;26.80;99.90;;;;;;5001404;28;20141;-74
2023/08/19 11:47:35;;;;;;;1.75;1.45;;;26.70;99.90;;;;;;5001240;28;20794;-75
2023/08/19 11:50:08;;;;;;;0.63;0.57;;;26.60;99.90;;;;;;5000885;28;20073;-75
2023/08/19 11:52:33;;;;;;;1.02;0.93;;;26.90;34.90;;;;;;4995208;28;20045;-74
2023/08/19 11:55:04;;;;;;;1.58;0.98;;;27.20;1.00;;;;;;4997142;28;20050;-75
2023/08/19 11:57:37;;;;;;;4.90;1.88;;;27.40;58.90;;;;;;5000984;28;20054;-75
2023/08/19 12:00:13;;;;;;;0.70;0.52;;;27.60;99.90;;;;;;4994264;28;20115;-75
2023/08/19 12:02:39;;;;;;;1.83;1.58;;;27.90;99.90;;;;;;5000792;28;20046;-75
2023/08/19 12:05:06;;;;;;;3.50;1.83;;;28.40;99.90;;;;;;4999168;28;20130;-75
2023/08/19 12:07:31;;;;;;;1.83;1.45;;;28.90;99.90;;;;;;5005188;28;20439;-75
2023/08/19 12:10:01;;;;;;;0.70;0.70;;;29.00;1.00;;;;;;5005410;28;20104;-75
2023/08/19 12:12:28;;;;;;;16.73;1.90;;;29.10;99.90;;;;;;4999011;28;20045;-75
2023/08/19 12:14:54;;;;;;;2.17;1.85;;;29.10;99.90;;;;;;5003989;28;20042;-75
2023/08/19 12:17:21;;;;;;;0.50;0.50;;;29.30;72.30;;;;;;5005720;28;20543;-75
2023/08/19 12:19:47;;;;;;;4.68;2.08;;;29.20;99.90;;;;;;5005476;28;20061;-75
2023/08/19 12:22:13;;;;;;;1.88;1.55;;;29.20;99.90;;;;;;5003737;28;20128;-75
2023/08/19 12:24:40;;;;;;;1.20;0.98;;;29.40;99.90;;;;;;5005435;28;20053;-75
2023/08/19 12:27:05;;;;;;;1.70;1.27;;;29.60;99.90;;;;;;5005218;28;20049;-74
2023/08/19 12:29:31;;;;;;;2.15;0.82;;;29.90;99.90;;;;;;5005660;28;20137;-75
2023/08/19 12:31:57;;;;;;;0.68;0.60;;;30.10;99.90;;;;;;5005844;28;20049;-75
2023/08/19 12:34:22;;;;;;;1.95;1.52;;;30.30;79.30;;;;;;4998418;28;20583;-74
2023/08/19 12:36:48;;;;;;;2.17;1.77;;;30.00;32.40;;;;;;4991283;28;20045;-75
2023/08/19 12:39:14;;;;;;;3.72;1.92;;;29.70;1.00;;;;;;5003559;28;20116;-75
2023/08/19 12:41:42;;;;;;;1.75;1.38;;;29.30;1.00;;;;;;5005109;28;20084;-75
2023/08/19 12:44:08;;;;;;;2.92;2.40;;;28.50;13.40;;;;;;5004713;28;20054;-74
2023/08/19 12:46:45;;;;;;;7.13;2.83;;;28.00;71.80;;;;;;5004471;28;20042;-75
2023/08/19 12:49:11;;;;;;;1.42;1.33;;;27.60;99.90;;;;;;4998915;28;20141;-75